sensor_id;sensor_type;location;lat;lon;timestamp;temperature;humidity
4056;DHT22;2043;52.184;8.690;2023-09-18T00:00:09;19.80;99.90
4056;DHT22;2043;52.184;8.690;2023-09-18T00:02:38;19.80;99.90
4056;DHT22;2043;52.184;8.690;2023-09-18T00:05:06;19.80;99.90
4056;DHT22;2043;52.184;8.690;2023-09-18T00:07:33;19.70;99.90
4056;DHT22;2043;52.184;8.690;2023-09-18T00:10:00;19.70;99.90
4056;DHT22;2043;52.184;8.690;2023-09-18T00:12:27;19.70;99.90
4056;DHT22;2043;52.184;8.690;2023-09-18T00:22:18;19.70;99.90
4056;DHT22;2043;52.184;8.690;2023-09-18T00:24:45;19.80;99.90
4056;DHT22;2043;52.184;8.690;2023-09-18T00:27:13;19.90;99.90
4056;DHT22;2043;52.184;8.690;2023-09-18T00:32:07;19.90;99.90
4056;DHT22;2043;52.184;8.690;2023-09-18T00:37:02;19.90;99.90
4056;DHT22;2043;52.184;8.690;2023-09-18T00:39:29;19.80;99.90
4056;DHT22;2043;52.184;8.690;2023-09-18T00:41:56;19.80;99.90
4056;DHT22;2043;52.184;8.690;2023-09-18T00:44:23;19.80;99.90
4056;DHT22;2043;52.184;8.690;2023-09-18T00:46:51;19.70;99.90
4056;DHT22;2043;52.184;8.690;2023-09-18T00:49:18;19.70;99.90
4056;DHT22;2043;52.184;8.690;2023-09-18T00:51:46;19.70;99.90
4056;DHT22;2043;52.184;8.690;2023-09-18T00:54:17;19.70;99.90
4056;DHT22;2043;52.184;8.690;2023-09-18T00:56:46;19.80;99.90
4056;DHT22;2043;52.184;8.690;2023-09-18T00:59:14;19.70;99.90
4056;DHT22;2043;52.184;8.690;2023-09-18T01:01:42;19.70;99.90
4056;DHT22;2043;52.184;8.690;2023-09-18T01:04:09;19.70;99.90
4056;DHT22;2043;52.184;8.690;2023-09-18T01:09:04;19.70;99.90
4056;DHT22;2043;52.184;8.690;2023-09-18T01:11:59;19.70;99.90
4056;DHT22;2043;52.184;8.690;2023-09-18T01:17:36;19.80;99.90
4056;DHT22;2043;52.184;8.690;2023-09-18T01:20:11;19.80;99.90
4056;DHT22;2043;52.184;8.690;2023-09-18T01:22:38;19.80;99.90
4056;DHT22;2043;52.184;8.690;2023-09-18T01:25:05;19.70;99.90
4056;DHT22;2043;52.184;8.690;2023-09-18T01:27:33;19.70;99.90
4056;DHT22;2043;52.184;8.690;2023-09-18T01:30:00;19.70;99.90
4056;DHT22;2043;52.184;8.690;2023-09-18T01:32:29;19.70;99.90
4056;DHT22;2043;52.184;8.690;2023-09-18T01:35:00;19.70;99.90
4056;DHT22;2043;52.184;8.690;2023-09-18T01:37:30;19.60;99.90
4056;DHT22;2043;52.184;8.690;2023-09-18T01:39:57;19.60;99.90
4056;DHT22;2043;52.184;8.690;2023-09-18T01:42:27;19.50;99.90
4056;DHT22;2043;52.184;8.690;2023-09-18T01:44:54;19.50;99.90
4056;DHT22;2043;52.184;8.690;2023-09-18T01:47:22;19.50;99.90
4056;DHT22;2043;52.184;8.690;2023-09-18T01:54:49;19.40;99.90
4056;DHT22;2043;52.184;8.690;2023-09-18T01:57:16;19.40;99.90
4056;DHT22;2043;52.184;8.690;2023-09-18T01:59:43;19.40;99.90
4056;DHT22;2043;52.184;8.690;2023-09-18T02:07:35;19.40;99.90
4056;DHT22;2043;52.184;8.690;2023-09-18T02:10:02;19.40;99.90
4056;DHT22;2043;52.184;8.690;2023-09-18T02:14:57;19.50;99.90
4056;DHT22;2043;52.184;8.690;2023-09-18T02:17:25;19.40;99.90
4056;DHT22;2043;52.184;8.690;2023-09-18T02:19:52;19.40;99.90
4056;DHT22;2043;52.184;8.690;2023-09-18T02:22:19;19.50;99.90
4056;DHT22;2043;52.184;8.690;2023-09-18T02:29:44;19.30;99.90
4056;DHT22;2043;52.184;8.690;2023-09-18T02:39:33;19.40;99.90
4056;DHT22;2043;52.184;8.690;2023-09-18T02:44:27;19.30;99.90
4056;DHT22;2043;52.184;8.690;2023-09-18T02:46:54;19.30;99.90
4056;DHT22;2043;52.184;8.690;2023-09-18T02:49:20;19.20;99.90
4056;DHT22;2043;52.184;8.690;2023-09-18T02:54:16;19.20;99.90
4056;DHT22;2043;52.184;8.690;2023-09-18T02:56:43;19.20;99.90
4056;DHT22;2043;52.184;8.690;2023-09-18T03:01:38;19.30;99.90
4056;DHT22;2043;52.184;8.690;2023-09-18T03:04:06;19.30;99.90
4056;DHT22;2043;52.184;8.690;2023-09-18T03:06:33;19.30;99.90
4056;DHT22;2043;52.184;8.690;2023-09-18T03:09:00;19.30;99.90
4056;DHT22;2043;52.184;8.690;2023-09-18T03:11:28;19.30;99.90
4056;DHT22;2043;52.184;8.690;2023-09-18T03:13:56;19.30;99.90
4056;DHT22;2043;52.184;8.690;2023-09-18T03:16:23;19.20;99.90
4056;DHT22;2043;52.184;8.690;2023-09-18T03:21:17;19.20;99.90
4056;DHT22;2043;52.184;8.690;2023-09-18T03:23:44;19.30;99.90
4056;DHT22;2043;52.184;8.690;2023-09-18T03:26:11;19.20;99.90
4056;DHT22;2043;52.184;8.690;2023-09-18T03:28:38;19.30;99.90
4056;DHT22;2043;52.184;8.690;2023-09-18T03:31:05;19.20;99.90
4056;DHT22;2043;52.184;8.690;2023-09-18T03:33:33;19.30;99.90
4056;DHT22;2043;52.184;8.690;2023-09-18T03:36:00;19.30;99.90
4056;DHT22;2043;52.184;8.690;2023-09-18T03:38:27;19.30;99.90
4056;DHT22;2043;52.184;8.690;2023-09-18T03:40:54;19.20;99.90
4056;DHT22;2043;52.184;8.690;2023-09-18T03:43:21;19.20;99.90
4056;DHT22;2043;52.184;8.690;2023-09-18T03:45:48;19.10;99.90
4056;DHT22;2043;52.184;8.690;2023-09-18T03:48:15;19.10;99.90
4056;DHT22;2043;52.184;8.690;2023-09-18T03:50:42;19.20;99.90
4056;DHT22;2043;52.184;8.690;2023-09-18T03:53:10;19.20;99.90
4056;DHT22;2043;52.184;8.690;2023-09-18T03:58:05;19.30;99.90
4056;DHT22;2043;52.184;8.690;2023-09-18T04:00:32;19.30;99.90
4056;DHT22;2043;52.184;8.690;2023-09-18T04:02:59;19.40;99.90
4056;DHT22;2043;52.184;8.690;2023-09-18T04:05:26;19.40;99.90
4056;DHT22;2043;52.184;8.690;2023-09-18T04:10:21;19.60;99.90
4056;DHT22;2043;52.184;8.690;2023-09-18T04:12:51;19.80;99.90
4056;DHT22;2043;52.184;8.690;2023-09-18T04:15:19;20.20;99.90
4056;DHT22;2043;52.184;8.690;2023-09-18T04:17:47;20.60;99.90
4056;DHT22;2043;52.184;8.690;2023-09-18T04:20:15;20.80;99.90
4056;DHT22;2043;52.184;8.690;2023-09-18T04:22:44;21.00;99.90
4056;DHT22;2043;52.184;8.690;2023-09-18T04:25:12;21.20;99.80
4056;DHT22;2043;52.184;8.690;2023-09-18T04:27:39;21.30;99.20
4056;DHT22;2043;52.184;8.690;2023-09-18T04:30:07;21.30;99.00
4056;DHT22;2043;52.184;8.690;2023-09-18T04:35:05;21.40;98.60
4056;DHT22;2043;52.184;8.690;2023-09-18T04:37:37;21.40;98.80
4056;DHT22;2043;52.184;8.690;2023-09-18T04:40:06;21.50;98.40
4056;DHT22;2043;52.184;8.690;2023-09-18T04:45:04;21.40;98.40
4056;DHT22;2043;52.184;8.690;2023-09-18T04:47:32;21.40;98.70
4056;DHT22;2043;52.184;8.690;2023-09-18T04:49:59;21.30;98.70
4056;DHT22;2043;52.184;8.690;2023-09-18T04:59:49;21.20;99.00
4056;DHT22;2043;52.184;8.690;2023-09-18T05:02:35;21.20;99.20
4056;DHT22;2043;52.184;8.690;2023-09-18T05:05:03;21.20;99.10
4056;DHT22;2043;52.184;8.690;2023-09-18T05:07:30;21.20;99.10
4056;DHT22;2043;52.184;8.690;2023-09-18T05:09:59;21.20;99.10
4056;DHT22;2043;52.184;8.690;2023-09-18T05:14:53;21.20;98.90
4056;DHT22;2043;52.184;8.690;2023-09-18T05:22:14;21.30;98.90
4056;DHT22;2043;52.184;8.690;2023-09-18T05:27:08;21.20;98.90
4056;DHT22;2043;52.184;8.690;2023-09-18T05:34:31;21.10;99.80
4056;DHT22;2043;52.184;8.690;2023-09-18T05:36:58;21.10;99.80
4056;DHT22;2043;52.184;8.690;2023-09-18T05:39:25;21.10;99.90
4056;DHT22;2043;52.184;8.690;2023-09-18T05:44:19;20.90;99.90
4056;DHT22;2043;52.184;8.690;2023-09-18T05:46:46;20.80;99.90
4056;DHT22;2043;52.184;8.690;2023-09-18T05:49:14;20.70;99.90
4056;DHT22;2043;52.184;8.690;2023-09-18T05:51:41;20.40;99.90
4056;DHT22;2043;52.184;8.690;2023-09-18T05:54:07;20.20;99.90
4056;DHT22;2043;52.184;8.690;2023-09-18T05:56:34;20.30;99.90
4056;DHT22;2043;52.184;8.690;2023-09-18T05:59:01;20.30;99.90
4056;DHT22;2043;52.184;8.690;2023-09-18T06:01:28;20.30;99.90
4056;DHT22;2043;52.184;8.690;2023-09-18T06:03:55;20.50;99.90
4056;DHT22;2043;52.184;8.690;2023-09-18T06:06:22;20.40;99.90
4056;DHT22;2043;52.184;8.690;2023-09-18T06:08:49;20.30;99.90
4056;DHT22;2043;52.184;8.690;2023-09-18T06:11:16;20.20;99.90
4056;DHT22;2043;52.184;8.690;2023-09-18T06:13:44;20.30;99.90
4056;DHT22;2043;52.184;8.690;2023-09-18T06:18:38;20.10;99.90
4056;DHT22;2043;52.184;8.690;2023-09-18T06:21:05;20.10;99.90
4056;DHT22;2043;52.184;8.690;2023-09-18T06:23:32;20.20;99.90
4056;DHT22;2043;52.184;8.690;2023-09-18T06:25:59;20.10;99.90
4056;DHT22;2043;52.184;8.690;2023-09-18T06:28:27;20.20;99.90
4056;DHT22;2043;52.184;8.690;2023-09-18T06:30:54;20.20;99.90
4056;DHT22;2043;52.184;8.690;2023-09-18T06:33:22;20.40;99.90
4056;DHT22;2043;52.184;8.690;2023-09-18T06:35:48;20.50;99.90
4056;DHT22;2043;52.184;8.690;2023-09-18T06:38:15;20.50;99.90
4056;DHT22;2043;52.184;8.690;2023-09-18T06:40:42;20.60;99.90
4056;DHT22;2043;52.184;8.690;2023-09-18T06:45:36;20.70;99.90
4056;DHT22;2043;52.184;8.690;2023-09-18T06:48:05;20.70;99.90
4056;DHT22;2043;52.184;8.690;2023-09-18T06:53:00;20.70;99.90
4056;DHT22;2043;52.184;8.690;2023-09-18T06:55:26;20.90;99.90
4056;DHT22;2043;52.184;8.690;2023-09-18T06:57:53;20.90;99.90
4056;DHT22;2043;52.184;8.690;2023-09-18T07:00:20;21.50;99.90
4056;DHT22;2043;52.184;8.690;2023-09-18T07:05:16;21.50;99.90
4056;DHT22;2043;52.184;8.690;2023-09-18T07:07:43;21.50;99.90
4056;DHT22;2043;52.184;8.690;2023-09-18T07:10:10;21.50;99.90
4056;DHT22;2043;52.184;8.690;2023-09-18T07:12:37;21.50;99.90
4056;DHT22;2043;52.184;8.690;2023-09-18T07:15:04;21.40;99.90
4056;DHT22;2043;52.184;8.690;2023-09-18T07:17:34;21.50;99.90
4056;DHT22;2043;52.184;8.690;2023-09-18T07:20:02;22.00;99.50
4056;DHT22;2043;52.184;8.690;2023-09-18T07:25:08;21.70;99.90
4056;DHT22;2043;52.184;8.690;2023-09-18T07:27:35;21.60;99.90
4056;DHT22;2043;52.184;8.690;2023-09-18T07:30:05;21.60;99.90
4056;DHT22;2043;52.184;8.690;2023-09-18T07:32:32;21.70;99.90
4056;DHT22;2043;52.184;8.690;2023-09-18T07:35:05;21.80;99.90
4056;DHT22;2043;52.184;8.690;2023-09-18T07:37:33;21.80;99.90
4056;DHT22;2043;52.184;8.690;2023-09-18T07:40:01;21.80;99.90
4056;DHT22;2043;52.184;8.690;2023-09-18T07:44:55;23.50;96.50
4056;DHT22;2043;52.184;8.690;2023-09-18T07:47:25;23.40;96.90
4056;DHT22;2043;52.184;8.690;2023-09-18T07:49:52;23.40;96.70
4056;DHT22;2043;52.184;8.690;2023-09-18T07:52:21;23.10;97.40
4056;DHT22;2043;52.184;8.690;2023-09-18T07:57:15;23.20;98.00
4056;DHT22;2043;52.184;8.690;2023-09-18T07:59:42;23.70;96.70
4056;DHT22;2043;52.184;8.690;2023-09-18T08:02:09;23.60;95.50
4056;DHT22;2043;52.184;8.690;2023-09-18T08:04:36;23.60;96.30
4056;DHT22;2043;52.184;8.690;2023-09-18T08:07:04;23.70;95.70
4056;DHT22;2043;52.184;8.690;2023-09-18T08:09:33;23.70;95.60
4056;DHT22;2043;52.184;8.690;2023-09-18T08:12:04;23.50;94.60
4056;DHT22;2043;52.184;8.690;2023-09-18T08:14:31;23.20;95.30
4056;DHT22;2043;52.184;8.690;2023-09-18T08:16:59;23.00;95.70
4056;DHT22;2043;52.184;8.690;2023-09-18T08:19:27;22.80;96.00
4056;DHT22;2043;52.184;8.690;2023-09-18T08:21:54;22.70;96.20
4056;DHT22;2043;52.184;8.690;2023-09-18T08:24:23;22.60;96.60
4056;DHT22;2043;52.184;8.690;2023-09-18T08:26:49;22.50;96.80
4056;DHT22;2043;52.184;8.690;2023-09-18T08:36:39;22.20;96.30
4056;DHT22;2043;52.184;8.690;2023-09-18T08:41:33;22.30;97.10
4056;DHT22;2043;52.184;8.690;2023-09-18T08:44:03;22.30;96.70
4056;DHT22;2043;52.184;8.690;2023-09-18T08:46:30;22.20;96.60
4056;DHT22;2043;52.184;8.690;2023-09-18T08:49:00;22.20;96.70
4056;DHT22;2043;52.184;8.690;2023-09-18T08:51:27;22.20;96.80
4056;DHT22;2043;52.184;8.690;2023-09-18T08:53:55;22.20;96.20
4056;DHT22;2043;52.184;8.690;2023-09-18T08:58:50;22.10;96.90
4056;DHT22;2043;52.184;8.690;2023-09-18T09:01:17;22.10;96.90
4056;DHT22;2043;52.184;8.690;2023-09-18T09:06:12;22.10;97.10
4056;DHT22;2043;52.184;8.690;2023-09-18T09:08:39;22.20;96.80
4056;DHT22;2043;52.184;8.690;2023-09-18T09:11:06;22.20;96.60
4056;DHT22;2043;52.184;8.690;2023-09-18T09:13:33;22.10;97.10
4056;DHT22;2043;52.184;8.690;2023-09-18T09:16:12;22.20;97.00
4056;DHT22;2043;52.184;8.690;2023-09-18T09:21:18;22.10;96.90
4056;DHT22;2043;52.184;8.690;2023-09-18T09:23:50;22.10;97.40
4056;DHT22;2043;52.184;8.690;2023-09-18T09:26:22;22.10;97.20
4056;DHT22;2043;52.184;8.690;2023-09-18T09:28:49;22.20;97.00
4056;DHT22;2043;52.184;8.690;2023-09-18T09:31:28;22.10;96.60
4056;DHT22;2043;52.184;8.690;2023-09-18T09:33:56;22.10;97.10
4056;DHT22;2043;52.184;8.690;2023-09-18T09:36:24;22.00;96.80
4056;DHT22;2043;52.184;8.690;2023-09-18T09:38:58;22.00;97.10
4056;DHT22;2043;52.184;8.690;2023-09-18T09:41:26;22.10;97.20
4056;DHT22;2043;52.184;8.690;2023-09-18T09:43:57;22.00;97.90
4056;DHT22;2043;52.184;8.690;2023-09-18T09:46:24;22.10;96.80
4056;DHT22;2043;52.184;8.690;2023-09-18T09:49:05;22.10;96.80
4056;DHT22;2043;52.184;8.690;2023-09-18T09:51:33;22.10;96.10
4056;DHT22;2043;52.184;8.690;2023-09-18T09:54:00;22.10;96.30
4056;DHT22;2043;52.184;8.690;2023-09-18T09:59:13;22.10;96.60
4056;DHT22;2043;52.184;8.690;2023-09-18T10:01:41;22.10;96.60
4056;DHT22;2043;52.184;8.690;2023-09-18T10:04:15;22.10;96.80
4056;DHT22;2043;52.184;8.690;2023-09-18T10:06:57;22.10;97.10
4056;DHT22;2043;52.184;8.690;2023-09-18T10:09:26;22.10;96.90
4056;DHT22;2043;52.184;8.690;2023-09-18T10:11:56;22.00;96.60
4056;DHT22;2043;52.184;8.690;2023-09-18T10:14:31;22.00;96.30
4056;DHT22;2043;52.184;8.690;2023-09-18T10:17:20;22.00;96.60
4056;DHT22;2043;52.184;8.690;2023-09-18T10:22:38;22.20;96.60
4056;DHT22;2043;52.184;8.690;2023-09-18T10:25:11;22.20;96.40
4056;DHT22;2043;52.184;8.690;2023-09-18T10:27:39;22.30;96.30
4056;DHT22;2043;52.184;8.690;2023-09-18T10:30:09;22.20;96.00
4056;DHT22;2043;52.184;8.690;2023-09-18T10:32:40;22.30;96.00
4056;DHT22;2043;52.184;8.690;2023-09-18T10:35:08;22.40;95.10
4056;DHT22;2043;52.184;8.690;2023-09-18T10:37:37;22.40;96.00
4056;DHT22;2043;52.184;8.690;2023-09-18T10:40:05;22.50;95.90
4056;DHT22;2043;52.184;8.690;2023-09-18T10:42:38;22.50;95.60
4056;DHT22;2043;52.184;8.690;2023-09-18T10:45:11;22.50;95.50
4056;DHT22;2043;52.184;8.690;2023-09-18T10:47:39;22.40;95.50
4056;DHT22;2043;52.184;8.690;2023-09-18T10:50:08;22.40;95.80
4056;DHT22;2043;52.184;8.690;2023-09-18T10:52:43;22.50;95.90
4056;DHT22;2043;52.184;8.690;2023-09-18T10:55:14;22.50;95.50
4056;DHT22;2043;52.184;8.690;2023-09-18T10:58:00;22.50;94.90
4056;DHT22;2043;52.184;8.690;2023-09-18T11:00:31;22.50;94.70
4056;DHT22;2043;52.184;8.690;2023-09-18T11:03:13;22.50;95.10
4056;DHT22;2043;52.184;8.690;2023-09-18T11:08:27;22.70;94.50
4056;DHT22;2043;52.184;8.690;2023-09-18T11:10:59;22.80;93.90
4056;DHT22;2043;52.184;8.690;2023-09-18T11:13:41;22.70;94.40
4056;DHT22;2043;52.184;8.690;2023-09-18T11:21:31;22.80;94.40
4056;DHT22;2043;52.184;8.690;2023-09-18T11:26:34;22.60;93.90
4056;DHT22;2043;52.184;8.690;2023-09-18T11:29:04;22.60;93.90
4056;DHT22;2043;52.184;8.690;2023-09-18T11:31:48;22.70;94.10
4056;DHT22;2043;52.184;8.690;2023-09-18T11:36:55;23.10;93.60
4056;DHT22;2043;52.184;8.690;2023-09-18T11:39:39;23.20;92.80
4056;DHT22;2043;52.184;8.690;2023-09-18T11:44:34;23.00;93.50
4056;DHT22;2043;52.184;8.690;2023-09-18T11:47:10;22.90;93.00
4056;DHT22;2043;52.184;8.690;2023-09-18T11:49:51;22.90;93.60
4056;DHT22;2043;52.184;8.690;2023-09-18T11:52:23;22.90;94.10
4056;DHT22;2043;52.184;8.690;2023-09-18T11:54:52;23.10;92.50
4056;DHT22;2043;52.184;8.690;2023-09-18T11:59:47;24.00;91.20
4056;DHT22;2043;52.184;8.690;2023-09-18T12:02:28;24.70;90.00
4056;DHT22;2043;52.184;8.690;2023-09-18T12:05:14;24.80;89.90
4056;DHT22;2043;52.184;8.690;2023-09-18T12:07:43;25.40;86.70
4056;DHT22;2043;52.184;8.690;2023-09-18T12:10:18;25.30;86.40
4056;DHT22;2043;52.184;8.690;2023-09-18T12:12:45;24.90;89.00
4056;DHT22;2043;52.184;8.690;2023-09-18T12:15:21;24.30;88.60
4056;DHT22;2043;52.184;8.690;2023-09-18T12:17:55;24.00;89.80
4056;DHT22;2043;52.184;8.690;2023-09-18T12:22:50;23.70;90.40
4056;DHT22;2043;52.184;8.690;2023-09-18T12:25:18;23.70;91.00
4056;DHT22;2043;52.184;8.690;2023-09-18T12:30:12;23.90;90.80
4056;DHT22;2043;52.184;8.690;2023-09-18T12:32:47;23.90;90.10
4056;DHT22;2043;52.184;8.690;2023-09-18T12:35:17;23.70;90.80
4056;DHT22;2043;52.184;8.690;2023-09-18T12:37:45;23.60;90.80
4056;DHT22;2043;52.184;8.690;2023-09-18T12:40:28;23.50;90.90
4056;DHT22;2043;52.184;8.690;2023-09-18T12:42:57;23.50;91.10
4056;DHT22;2043;52.184;8.690;2023-09-18T12:45:29;23.50;91.20
4056;DHT22;2043;52.184;8.690;2023-09-18T12:47:57;23.60;91.50
4056;DHT22;2043;52.184;8.690;2023-09-18T12:50:25;23.70;90.90
4056;DHT22;2043;52.184;8.690;2023-09-18T12:52:53;23.70;91.20
4056;DHT22;2043;52.184;8.690;2023-09-18T12:55:21;23.60;91.50
4056;DHT22;2043;52.184;8.690;2023-09-18T12:57:49;23.80;91.10
4056;DHT22;2043;52.184;8.690;2023-09-18T13:00:21;23.90;91.50
4056;DHT22;2043;52.184;8.690;2023-09-18T13:02:53;24.00;90.70
4056;DHT22;2043;52.184;8.690;2023-09-18T13:05:24;24.30;90.20
4056;DHT22;2043;52.184;8.690;2023-09-18T13:08:03;24.50;89.10
4056;DHT22;2043;52.184;8.690;2023-09-18T13:10:46;24.70;88.70
4056;DHT22;2043;52.184;8.690;2023-09-18T13:13:20;24.40;89.40
4056;DHT22;2043;52.184;8.690;2023-09-18T13:15:48;24.40;89.70
4056;DHT22;2043;52.184;8.690;2023-09-18T13:18:18;24.60;89.40
4056;DHT22;2043;52.184;8.690;2023-09-18T13:20:46;24.60;89.40
4056;DHT22;2043;52.184;8.690;2023-09-18T13:23:13;24.60;88.50
4056;DHT22;2043;52.184;8.690;2023-09-18T13:25:40;24.70;88.50
4056;DHT22;2043;52.184;8.690;2023-09-18T13:28:11;24.50;88.80
4056;DHT22;2043;52.184;8.690;2023-09-18T13:30:40;24.50;89.70
4056;DHT22;2043;52.184;8.690;2023-09-18T13:33:12;24.70;89.10
4056;DHT22;2043;52.184;8.690;2023-09-18T13:35:40;24.80;87.90
4056;DHT22;2043;52.184;8.690;2023-09-18T13:38:09;24.90;88.00
4056;DHT22;2043;52.184;8.690;2023-09-18T13:40:46;24.90;88.30
4056;DHT22;2043;52.184;8.690;2023-09-18T13:43:14;24.80;88.50
4056;DHT22;2043;52.184;8.690;2023-09-18T13:48:12;24.70;88.10
4056;DHT22;2043;52.184;8.690;2023-09-18T13:50:39;24.90;87.20
4056;DHT22;2043;52.184;8.690;2023-09-18T13:53:06;25.00;86.40
4056;DHT22;2043;52.184;8.690;2023-09-18T13:55:34;25.10;86.40
4056;DHT22;2043;52.184;8.690;2023-09-18T13:58:01;25.30;85.20
4056;DHT22;2043;52.184;8.690;2023-09-18T14:00:32;25.40;84.80
4056;DHT22;2043;52.184;8.690;2023-09-18T14:02:59;25.40;85.50
4056;DHT22;2043;52.184;8.690;2023-09-18T14:05:26;25.70;85.10
4056;DHT22;2043;52.184;8.690;2023-09-18T14:07:55;25.70;84.80
4056;DHT22;2043;52.184;8.690;2023-09-18T14:10:27;25.40;85.50
4056;DHT22;2043;52.184;8.690;2023-09-18T14:12:54;25.30;86.30
4056;DHT22;2043;52.184;8.690;2023-09-18T14:15:21;25.00;86.30
4056;DHT22;2043;52.184;8.690;2023-09-18T14:17:48;24.90;87.00
4056;DHT22;2043;52.184;8.690;2023-09-18T14:20:16;24.90;86.50
4056;DHT22;2043;52.184;8.690;2023-09-18T14:22:46;24.60;86.90
4056;DHT22;2043;52.184;8.690;2023-09-18T14:25:17;24.40;87.40
4056;DHT22;2043;52.184;8.690;2023-09-18T14:30:13;24.30;88.20
4056;DHT22;2043;52.184;8.690;2023-09-18T14:35:09;23.90;88.80
4056;DHT22;2043;52.184;8.690;2023-09-18T14:37:37;23.80;89.60
4056;DHT22;2043;52.184;8.690;2023-09-18T14:40:05;23.90;89.50
4056;DHT22;2043;52.184;8.690;2023-09-18T14:42:32;23.80;90.30
4056;DHT22;2043;52.184;8.690;2023-09-18T14:45:00;23.60;91.10
4056;DHT22;2043;52.184;8.690;2023-09-18T14:47:28;23.50;92.10
4056;DHT22;2043;52.184;8.690;2023-09-18T14:49:55;23.40;92.20
4056;DHT22;2043;52.184;8.690;2023-09-18T14:52:25;23.60;91.90
4056;DHT22;2043;52.184;8.690;2023-09-18T14:54:52;23.90;91.40
4056;DHT22;2043;52.184;8.690;2023-09-18T14:59:47;24.10;89.70
4056;DHT22;2043;52.184;8.690;2023-09-18T15:02:15;24.20;91.10
4056;DHT22;2043;52.184;8.690;2023-09-18T15:04:46;24.20;90.50
4056;DHT22;2043;52.184;8.690;2023-09-18T15:07:14;24.20;90.60
4056;DHT22;2043;52.184;8.690;2023-09-18T15:09:41;24.10;89.80
4056;DHT22;2043;52.184;8.690;2023-09-18T15:12:08;23.90;90.00
4056;DHT22;2043;52.184;8.690;2023-09-18T15:14:36;23.90;90.70
4056;DHT22;2043;52.184;8.690;2023-09-18T15:17:04;24.20;90.10
4056;DHT22;2043;52.184;8.690;2023-09-18T15:19:30;24.20;89.00
4056;DHT22;2043;52.184;8.690;2023-09-18T15:21:58;23.80;88.80
4056;DHT22;2043;52.184;8.690;2023-09-18T15:24:25;23.60;89.40
4056;DHT22;2043;52.184;8.690;2023-09-18T15:26:52;23.80;89.30
4056;DHT22;2043;52.184;8.690;2023-09-18T15:29:19;23.80;87.70
4056;DHT22;2043;52.184;8.690;2023-09-18T15:31:46;23.70;86.10
4056;DHT22;2043;52.184;8.690;2023-09-18T15:34:14;23.60;85.80
4056;DHT22;2043;52.184;8.690;2023-09-18T15:36:41;23.70;86.50
4056;DHT22;2043;52.184;8.690;2023-09-18T15:39:07;23.70;86.00
4056;DHT22;2043;52.184;8.690;2023-09-18T15:41:36;23.80;86.00
4056;DHT22;2043;52.184;8.690;2023-09-18T15:44:05;23.70;86.10
4056;DHT22;2043;52.184;8.690;2023-09-18T15:46:33;23.70;86.60
4056;DHT22;2043;52.184;8.690;2023-09-18T15:49:01;23.90;86.90
4056;DHT22;2043;52.184;8.690;2023-09-18T15:53:55;23.60;87.50
4056;DHT22;2043;52.184;8.690;2023-09-18T15:56:24;23.70;88.00
4056;DHT22;2043;52.184;8.690;2023-09-18T15:58:51;23.70;88.40
4056;DHT22;2043;52.184;8.690;2023-09-18T16:03:45;23.70;89.20
4056;DHT22;2043;52.184;8.690;2023-09-18T16:06:18;23.50;89.90
4056;DHT22;2043;52.184;8.690;2023-09-18T16:08:47;23.50;90.10
4056;DHT22;2043;52.184;8.690;2023-09-18T16:11:16;23.40;90.10
4056;DHT22;2043;52.184;8.690;2023-09-18T16:13:43;23.20;90.90
4056;DHT22;2043;52.184;8.690;2023-09-18T16:16:10;23.10;91.30
4056;DHT22;2043;52.184;8.690;2023-09-18T16:18:37;23.10;91.50
4056;DHT22;2043;52.184;8.690;2023-09-18T16:21:04;23.20;91.70
4056;DHT22;2043;52.184;8.690;2023-09-18T16:23:32;23.20;91.60
4056;DHT22;2043;52.184;8.690;2023-09-18T16:25:59;23.20;91.70
4056;DHT22;2043;52.184;8.690;2023-09-18T16:28:26;23.30;91.80
4056;DHT22;2043;52.184;8.690;2023-09-18T16:30:52;23.40;92.10
4056;DHT22;2043;52.184;8.690;2023-09-18T16:33:19;23.50;92.00
4056;DHT22;2043;52.184;8.690;2023-09-18T16:35:46;23.50;92.00
4056;DHT22;2043;52.184;8.690;2023-09-18T16:38:14;23.30;92.50
4056;DHT22;2043;52.184;8.690;2023-09-18T16:40:40;23.40;92.60
4056;DHT22;2043;52.184;8.690;2023-09-18T16:43:07;23.30;93.10
4056;DHT22;2043;52.184;8.690;2023-09-18T16:45:35;23.50;92.80
4056;DHT22;2043;52.184;8.690;2023-09-18T16:48:02;23.40;92.90
4056;DHT22;2043;52.184;8.690;2023-09-18T16:50:31;23.30;93.30
4056;DHT22;2043;52.184;8.690;2023-09-18T16:52:58;23.20;93.50
4056;DHT22;2043;52.184;8.690;2023-09-18T16:55:25;23.00;94.00
4056;DHT22;2043;52.184;8.690;2023-09-18T16:57:53;22.90;94.20
4056;DHT22;2043;52.184;8.690;2023-09-18T17:00:20;22.90;93.90
4056;DHT22;2043;52.184;8.690;2023-09-18T17:02:48;22.90;94.30
4056;DHT22;2043;52.184;8.690;2023-09-18T17:05:15;22.70;94.30
4056;DHT22;2043;52.184;8.690;2023-09-18T17:07:42;22.60;94.70
4056;DHT22;2043;52.184;8.690;2023-09-18T17:10:09;22.70;94.50
4056;DHT22;2043;52.184;8.690;2023-09-18T17:12:36;22.60;94.90
4056;DHT22;2043;52.184;8.690;2023-09-18T17:15:07;22.50;95.10
4056;DHT22;2043;52.184;8.690;2023-09-18T17:17:35;22.50;95.40
4056;DHT22;2043;52.184;8.690;2023-09-18T17:20:03;22.40;95.80
4056;DHT22;2043;52.184;8.690;2023-09-18T17:22:31;22.30;95.80
4056;DHT22;2043;52.184;8.690;2023-09-18T17:24:59;22.30;96.10
4056;DHT22;2043;52.184;8.690;2023-09-18T17:27:27;22.30;96.10
4056;DHT22;2043;52.184;8.690;2023-09-18T17:29:55;22.20;96.30
4056;DHT22;2043;52.184;8.690;2023-09-18T17:32:25;22.10;96.60
4056;DHT22;2043;52.184;8.690;2023-09-18T17:34:53;22.20;96.30
4056;DHT22;2043;52.184;8.690;2023-09-18T17:39:48;22.10;96.30
4056;DHT22;2043;52.184;8.690;2023-09-18T17:42:14;22.00;95.80
4056;DHT22;2043;52.184;8.690;2023-09-18T17:44:41;21.90;96.10
4056;DHT22;2043;52.184;8.690;2023-09-18T17:49:36;22.00;95.60
4056;DHT22;2043;52.184;8.690;2023-09-18T17:52:03;21.90;95.50
4056;DHT22;2043;52.184;8.690;2023-09-18T17:54:35;21.90;95.20
4056;DHT22;2043;52.184;8.690;2023-09-18T17:57:03;21.90;94.70
4056;DHT22;2043;52.184;8.690;2023-09-18T17:59:30;21.90;94.50
4056;DHT22;2043;52.184;8.690;2023-09-18T18:04:26;21.70;94.80
4056;DHT22;2043;52.184;8.690;2023-09-18T18:06:53;21.60;94.80
4056;DHT22;2043;52.184;8.690;2023-09-18T18:09:19;21.70;94.80
4056;DHT22;2043;52.184;8.690;2023-09-18T18:11:46;21.70;94.60
4056;DHT22;2043;52.184;8.690;2023-09-18T18:19:09;21.70;94.30
4056;DHT22;2043;52.184;8.690;2023-09-18T18:24:04;21.50;94.10
4056;DHT22;2043;52.184;8.690;2023-09-18T18:29:02;21.60;93.90
4056;DHT22;2043;52.184;8.690;2023-09-18T18:31:31;21.60;93.80
4056;DHT22;2043;52.184;8.690;2023-09-18T18:33:59;21.60;93.80
4056;DHT22;2043;52.184;8.690;2023-09-18T18:36:27;21.60;93.70
4056;DHT22;2043;52.184;8.690;2023-09-18T18:38:55;21.60;93.60
4056;DHT22;2043;52.184;8.690;2023-09-18T18:41:23;21.60;93.60
4056;DHT22;2043;52.184;8.690;2023-09-18T18:43:49;21.60;93.60
4056;DHT22;2043;52.184;8.690;2023-09-18T18:46:16;21.50;93.90
4056;DHT22;2043;52.184;8.690;2023-09-18T18:48:43;21.50;93.90
4056;DHT22;2043;52.184;8.690;2023-09-18T18:51:13;21.40;93.90
4056;DHT22;2043;52.184;8.690;2023-09-18T18:53:46;21.50;93.80
4056;DHT22;2043;52.184;8.690;2023-09-18T18:56:16;21.50;93.80
4056;DHT22;2043;52.184;8.690;2023-09-18T18:58:45;21.60;93.40
4056;DHT22;2043;52.184;8.690;2023-09-18T19:01:13;21.40;93.80
4056;DHT22;2043;52.184;8.690;2023-09-18T19:03:41;21.50;93.70
4056;DHT22;2043;52.184;8.690;2023-09-18T19:06:10;21.40;93.50
4056;DHT22;2043;52.184;8.690;2023-09-18T19:08:37;21.50;93.30
4056;DHT22;2043;52.184;8.690;2023-09-18T19:11:05;21.50;93.40
4056;DHT22;2043;52.184;8.690;2023-09-18T19:13:32;21.50;93.30